This is the latest recevied weather packets stored in our database for station/object KD9IXX-13. If no packets are shown the sender has not sent any weather packets the latest 1 day(s).
| Time | Temp. | Humidity | Pressure | Rain* | Wind** | Luminosity | Snow |
|---|---|---|---|---|---|---|---|
| 1778030702 | 11.11° C | 52% | 1010.5 hPa | 0 mm | 0 m/s | 0 W/m² | - |
| 1778030402 | 11.11° C | 51% | 1010.6 hPa | 0 mm | 0.45 m/s, 297° | 0 W/m² | - |
| 1778030101 | 11.11° C | 50% | 1010.7 hPa | 0 mm | 0.89 m/s, 298° | 0 W/m² | - |
| 1778029802 | 11.11° C | 52% | 1010.6 hPa | 0 mm | 0.89 m/s, 301° | 0 W/m² | - |
| 1778029502 | 11.11° C | 53% | 1010.5 hPa | 0 mm | 0.45 m/s, 297° | 0 W/m² | - |
| 1778029202 | 11.11° C | 52% | 1010.8 hPa | 0 mm | 0 m/s | 0 W/m² | - |
| 1778028902 | 11.11° C | 51% | 1010.4 hPa | 0 mm | 0.45 m/s, 297° | 0 W/m² | - |
| 1778028602 | 11.11° C | 49% | 1010.4 hPa | 0 mm | 0.89 m/s, 303° | 0 W/m² | - |
| 1778028302 | 11.11° C | 50% | 1010.5 hPa | 0 mm | 0.45 m/s, 299° | 0 W/m² | - |
| 1778028002 | 11.11° C | 49% | 1010.5 hPa | 0 mm | 0.89 m/s, 301° | 0 W/m² | - |
| 1778027702 | 11.67° C | 51% | 1010.4 hPa | 0 mm | 0.45 m/s, 299° | 1 W/m² | - |
| 1778027402 | 11.67° C | 50% | 1010.5 hPa | 0 mm | 0.89 m/s, 281° | 2 W/m² | - |
| 1778027102 | 11.67° C | 50% | 1010 hPa | 0 mm | 0.45 m/s, 293° | 4 W/m² | - |
| 1778026802 | 11.67° C | 49% | 1010.1 hPa | 0 mm | 0 m/s | 7 W/m² | - |
| 1778026502 | 11.67° C | 48% | 1010.3 hPa | 0 mm | 0.89 m/s, 316° | 7 W/m² | - |
| 1778026201 | 11.67° C | 47% | 1010.1 hPa | 0 mm | 0.89 m/s, 284° | 14 W/m² | - |
| 1778025903 | 11.67° C | 48% | 1010.2 hPa | 0 mm | 0.45 m/s, 303° | 29 W/m² | - |
| 1778025602 | 12.22° C | 44% | 1010.1 hPa | 0 mm | 2.24 m/s, 337° | 30 W/m² | - |
| 1778025303 | 12.22° C | 45% | 1009.9 hPa | 0 mm | 1.79 m/s, 322° | 34 W/m² | - |
| 1778025002 | 12.22° C | 44% | 1009.9 hPa | 0 mm | 2.24 m/s, 323° | 34 W/m² | - |
| 1778024702 | 12.22° C | 44% | 1010.5 hPa | 0 mm | 1.34 m/s, 302° | 32 W/m² | - |
| 1778024402 | 12.22° C | 44% | 1010.2 hPa | 0 mm | 1.34 m/s, 293° | 39 W/m² | - |
| 1778024102 | 12.22° C | 44% | 1010.4 hPa | 0 mm | 0.89 m/s, 328° | 34 W/m² | - |
| 1778023802 | 12.22° C | 43% | 1010.3 hPa | 0 mm | 0.89 m/s, 297° | 33 W/m² | - |
| 1778023502 | 12.22° C | 42% | 1010.2 hPa | 0 mm | 1.79 m/s, 262° | 37 W/m² | - |
* Rain latest hour (hover to see other rain measurements)
** Current wind speed in m/s (hover to see current wind gust speed)